East Horsley, United Kingdom
Current Conditions -  °F | °C
As of 8:50 AM on Thursday 23 Oct 2014 (Local Time) from EGKK Reporting Station
Broken Clouds Broken Clouds  
Wind Chill: 54°   Ceiling: 3800
Heat Index: 54°   Visibility: 6mi
Dew Point: 46°   Wind: 7mph
Humidity: 77%   Direction: 200°SSW
Pressure: 30.18"   Gusts: NA
Location:  51.27°N, 0.43°W
Report Text: EGKK 230750Z 20006KT 9999 BKN038 12/08 Q1022
Loading
Personal Weather Stations






























Interactive Weather Map
Tropical Storm Tracking
New forecast layout! Learn more

10-Day Weather Forecast

Advertisements
Track Severe Weather on mobile